Airfield :







YOU CAN JOIN US ON...

 
LOGIN :

Register | Disclaimer

   EN    FR    IT 

 









Legend :    VFR   Marginal VFR   IFR   Intensive IFR   Very Intensive IFR
Visi :
Ceiling :
>= 8 km
>= 3000ft
5 to 8 km
1000 to 3000 ft
1500m to 5 km
500 to 1000 ft
800 to 1500m
200 to 500 ft
< 800m
< 200 ft
Symbols :   Thunderstorms  Fog  Heavy snow  Heavy precipitations  Wind > 20 kt






- Airport Elevation : 133 ft
- IATA code : BED


KBED - Laurence G Hanscom Field

CURRENT METAR :
  • 252351Z 11007KT 10SM BKN039 16/12 A3019 RMK AO2 SLP234 T01610117 10211 20161 56009

EXPIRED METARs :
  • 252251Z 11005KT 10SM BKN039 18/12 A3019 RMK AO2 SLP237 T01780122
  • 252151Z 11006KT 10SM BKN037 19/13 A3019 RMK AO2 SLP236 T01940128

TAF KBED
Valid from the 26 at 00:00 until the 27 at 00:00 UTC


252326Z 2600/2624 12005KT P6SM SCT015 BKN040
FM260200 00000KT 3SM BR BKN010
FM260600 00000KT 1 1/2SM BR BKN008
FM261300 19003KT 4SM BR BKN010
FM261500 19003KT P6SM SCT020
KZBW FIR / North America



MET'MAP, your aeronautical weather chart ! - Copyright ORBIFLY December 2007 - Disclaimer

ORBIFLY MET'MAP TEAM :

Programming & Development : Alexandra Zaïnal
Concept & original design : Baudouin d'Aumeries
Assistance for programming : Marc-Olivier Méhu
Technical & hardware support : Manuel Goepfert

Contact : metmap@orbifly.com




SOURCES & CREDITS :

   NOAA